Time;durP1;ratioP1;P1;durP2;ratioP2;P2;SDS_P1;SDS_P2;PMS_P1;PMS_P2;Temp;Humidity;BMP_temperature;BMP_pressure;BME280_temperature;BME280_humidity;BME280_pressure;Samples;Min_cycle;Max_cycle;Signal;HPM_P1;HPM_P2
2022/10/18 00:00:05;;;;;;;14.60;10.43;;;16.00;99.90;;;;;;5052644;28;20569;-52
2022/10/18 00:02:31;;;;;;;14.47;10.93;;;16.00;99.90;;;;;;5050639;28;20199;-52
2022/10/18 00:04:58;;;;;;;12.53;10.13;;;16.00;99.90;;;;;;5048760;28;20347;-54
2022/10/18 00:07:25;;;;;;;11.93;9.27;;;15.90;99.90;;;;;;5050954;28;20205;-54
2022/10/18 00:09:52;;;;;;;12.47;9.53;;;15.90;99.90;;;;;;5045679;28;20683;-52
2022/10/18 00:12:19;;;;;;;10.47;8.70;;;15.90;99.90;;;;;;5048578;28;20215;-52
2022/10/18 00:14:50;;;;;;;7.40;6.70;;;15.90;99.90;;;;;;5052376;28;20212;-52
2022/10/18 00:17:17;;;;;;;9.37;7.20;;;15.80;99.90;;;;;;5049222;28;20718;-52
2022/10/18 00:19:45;;;;;;;8.70;7.77;;;15.80;99.90;;;;;;5046199;28;20646;-53
2022/10/18 00:22:12;;;;;;;10.03;7.93;;;15.80;99.90;;;;;;5048731;28;20202;-54
2022/10/18 00:24:39;;;;;;;13.17;10.47;;;15.80;99.90;;;;;;5040158;28;20206;-52
2022/10/18 00:27:06;;;;;;;14.07;9.83;;;15.80;99.90;;;;;;5043718;28;20206;-52
2022/10/18 00:29:33;;;;;;;13.20;10.63;;;15.90;99.90;;;;;;5051421;28;20295;-54
2022/10/18 00:32:00;;;;;;;14.37;10.60;;;15.90;99.90;;;;;;5047797;28;20206;-52
2022/10/18 00:34:27;;;;;;;12.53;9.73;;;15.80;99.90;;;;;;5052889;28;20225;-52
2022/10/18 00:36:54;;;;;;;13.43;10.07;;;15.80;99.90;;;;;;5046572;28;20316;-54
2022/10/18 00:39:21;;;;;;;10.70;8.83;;;15.80;99.90;;;;;;5050272;28;20271;-51
2022/10/18 00:41:49;;;;;;;13.80;9.63;;;15.80;99.90;;;;;;5050484;28;20206;-54
2022/10/18 00:44:16;;;;;;;12.67;9.20;;;15.70;99.90;;;;;;5050479;28;20206;-51
2022/10/18 00:46:46;;;;;;;13.40;9.67;;;15.80;99.90;;;;;;5048751;28;20242;-52
2022/10/18 00:49:18;;;;;;;13.83;9.83;;;15.70;99.90;;;;;;5048235;28;20289;-53
2022/10/18 00:51:57;;;;;;;13.27;10.40;;;15.70;99.90;;;;;;5052037;28;20287;-54
2022/10/18 00:54:26;;;;;;;14.30;9.80;;;15.70;99.90;;;;;;5049475;28;20211;-54
2022/10/18 00:56:53;;;;;;;11.63;9.63;;;15.70;99.90;;;;;;5051523;28;20202;-52
2022/10/18 00:59:20;;;;;;;15.73;9.53;;;15.80;99.90;;;;;;5046308;28;20195;-56
2022/10/18 01:01:48;;;;;;;12.83;10.07;;;15.80;99.90;;;;;;5048615;28;20207;-52
2022/10/18 01:04:16;;;;;;;13.43;9.23;;;15.80;99.90;;;;;;5048590;28;20565;-52
2022/10/18 01:06:59;;;;;;;10.40;8.50;;;15.80;99.90;;;;;;5047882;28;20213;-51
2022/10/18 01:09:39;;;;;;;14.53;9.67;;;15.80;99.90;;;;;;5044864;28;20198;-54
2022/10/18 01:12:06;;;;;;;13.73;9.60;;;15.90;99.90;;;;;;5041220;28;20245;-52
2022/10/18 01:14:44;;;;;;;12.97;9.93;;;15.90;99.90;;;;;;5054742;28;20202;-52
2022/10/18 01:17:39;;;;;;;11.53;8.60;;;15.90;99.90;;;;;;5048656;28;20221;-53
2022/10/18 01:20:39;;;;;;;11.53;9.50;;;15.80;99.90;;;;;;5048686;28;20205;-52
2022/10/18 01:23:09;;;;;;;13.50;8.97;;;15.90;99.90;;;;;;5050078;28;20307;-52
2022/10/18 01:26:06;;;;;;;11.00;8.90;;;15.90;99.90;;;;;;5042683;28;20591;-56
2022/10/18 01:28:55;;;;;;;9.60;8.27;;;15.80;99.90;;;;;;5037771;28;20202;-52
2022/10/18 01:31:30;;;;;;;9.67;8.37;;;15.80;99.90;;;;;;5049658;28;20235;-52
2022/10/18 01:34:01;;;;;;;12.20;7.40;;;15.80;99.90;;;;;;5045693;28;20699;-52
2022/10/18 01:36:42;;;;;;;11.80;8.30;;;15.80;99.90;;;;;;5048966;28;20673;-52
2022/10/18 01:39:17;;;;;;;11.97;8.63;;;15.80;99.90;;;;;;5048184;28;20198;-52
2022/10/18 01:41:46;;;;;;;11.30;8.10;;;15.70;99.90;;;;;;5050455;28;20244;-52
2022/10/18 01:44:18;;;;;;;12.63;8.10;;;15.70;99.90;;;;;;5047105;28;20285;-52
2022/10/18 01:46:46;;;;;;;12.30;8.30;;;15.70;99.90;;;;;;5047771;28;20237;-52
2022/10/18 01:49:13;;;;;;;10.73;8.30;;;15.70;99.90;;;;;;5049992;28;20758;-53
2022/10/18 01:51:39;;;;;;;11.30;8.07;;;15.60;99.90;;;;;;5047081;28;20205;-52
2022/10/18 01:54:08;;;;;;;12.73;8.43;;;15.70;99.90;;;;;;5045672;28;20266;-52
2022/10/18 01:56:59;;;;;;;11.00;8.23;;;15.70;99.90;;;;;;5049303;28;20236;-54
2022/10/18 01:59:41;;;;;;;6.77;6.07;;;15.70;99.90;;;;;;5039236;28;20229;-52
2022/10/18 02:02:23;;;;;;;9.23;6.93;;;15.50;99.90;;;;;;5042774;28;20206;-54
2022/10/18 02:04:59;;;;;;;8.00;6.83;;;15.40;99.90;;;;;;5044645;28;20579;-52
2022/10/18 02:07:56;;;;;;;9.63;7.57;;;15.50;99.90;;;;;;5044673;28;20202;-54
2022/10/18 02:10:51;;;;;;;8.63;6.60;;;15.50;99.90;;;;;;5050979;28;20229;-51
2022/10/18 02:13:21;;;;;;;15.13;7.97;;;15.60;99.90;;;;;;5041980;28;20213;-52
2022/10/18 02:15:53;;;;;;;9.23;7.20;;;15.50;99.90;;;;;;5049656;28;20671;-54
2022/10/18 02:18:28;;;;;;;9.67;6.93;;;15.40;99.90;;;;;;5042300;28;20212;-53
2022/10/18 02:20:57;;;;;;;11.63;7.80;;;15.30;99.90;;;;;;5051421;28;21124;-53
2022/10/18 02:23:25;;;;;;;11.07;7.70;;;15.40;99.90;;;;;;5047276;28;20873;-52
2022/10/18 02:25:52;;;;;;;13.40;8.73;;;15.50;99.90;;;;;;5044434;28;20207;-54
2022/10/18 02:28:20;;;;;;;11.30;7.23;;;15.50;99.90;;;;;;5043323;28;20387;-52
2022/10/18 02:31:09;;;;;;;9.07;6.87;;;15.40;99.90;;;;;;5041162;28;20209;-52
2022/10/18 02:33:52;;;;;;;10.17;6.90;;;15.30;99.90;;;;;;5046327;28;20588;-52
2022/10/18 02:36:30;;;;;;;12.97;8.50;;;15.50;99.90;;;;;;5045740;28;20208;-52
2022/10/18 02:39:06;;;;;;;11.17;7.67;;;15.50;99.90;;;;;;5049531;28;20278;-53
2022/10/18 02:41:33;;;;;;;9.87;7.60;;;15.50;99.90;;;;;;5041030;28;20230;-54
2022/10/18 02:44:00;;;;;;;9.73;7.47;;;15.50;99.90;;;;;;5044336;28;20209;-53
2022/10/18 02:46:27;;;;;;;12.70;9.13;;;15.40;99.90;;;;;;5044062;28;20207;-51
2022/10/18 02:48:53;;;;;;;13.93;10.17;;;15.50;99.90;;;;;;5046292;28;20283;-50
2022/10/18 02:51:20;;;;;;;13.57;10.33;;;15.50;99.90;;;;;;5051512;28;20209;-52
2022/10/18 02:53:47;;;;;;;14.97;10.53;;;15.50;99.90;;;;;;5042607;28;20720;-51
2022/10/18 02:56:14;;;;;;;14.60;10.60;;;15.60;99.90;;;;;;5041555;28;20193;-55
2022/10/18 02:58:41;;;;;;;13.20;9.83;;;15.60;99.90;;;;;;5046693;28;20199;-52
2022/10/18 03:01:07;;;;;;;14.20;8.40;;;15.50;99.90;;;;;;5043599;28;20207;-54
2022/10/18 03:03:34;;;;;;;13.70;8.60;;;15.30;99.90;;;;;;5041246;28;20959;-52
2022/10/18 03:06:01;;;;;;;12.20;8.80;;;15.20;99.90;;;;;;5044659;28;20204;-52
2022/10/18 03:08:28;;;;;;;12.10;9.33;;;15.30;99.90;;;;;;5053528;28;20226;-52
2022/10/18 03:10:55;;;;;;;9.63;7.97;;;15.40;99.90;;;;;;5054586;28;20645;-53
2022/10/18 03:13:22;;;;;;;10.47;8.40;;;15.40;99.90;;;;;;5050045;28;20225;-55
2022/10/18 03:15:49;;;;;;;12.03;9.10;;;15.50;99.90;;;;;;5052010;28;20195;-52
2022/10/18 03:18:15;;;;;;;9.80;8.80;;;15.50;99.90;;;;;;5053970;28;20479;-53
2022/10/18 03:20:42;;;;;;;11.20;8.40;;;15.40;99.90;;;;;;5052022;28;20761;-53
2022/10/18 03:23:09;;;;;;;13.37;9.90;;;15.30;99.90;;;;;;5048364;28;20690;-53
2022/10/18 03:25:36;;;;;;;12.00;10.33;;;15.30;99.90;;;;;;5043363;28;20231;-54
2022/10/18 03:28:07;;;;;;;12.63;10.20;;;15.40;99.90;;;;;;5044202;28;20204;-53
2022/10/18 03:30:34;;;;;;;12.30;9.20;;;15.50;99.90;;;;;;5048672;28;20657;-54
2022/10/18 03:33:00;;;;;;;11.43;8.53;;;15.40;99.90;;;;;;5046050;28;20558;-52
2022/10/18 03:35:27;;;;;;;11.87;9.47;;;15.20;99.90;;;;;;5052182;28;20196;-53
2022/10/18 03:37:54;;;;;;;10.17;8.77;;;15.30;99.90;;;;;;5046192;28;20207;-54
2022/10/18 03:40:21;;;;;;;12.60;9.07;;;15.30;99.90;;;;;;5046101;28;20541;-53
2022/10/18 03:42:47;;;;;;;12.63;9.13;;;15.40;99.90;;;;;;5053020;28;20245;-53
2022/10/18 03:45:14;;;;;;;9.50;7.97;;;15.20;99.90;;;;;;5049591;28;20835;-53
2022/10/18 03:47:41;;;;;;;9.53;8.40;;;15.10;99.90;;;;;;5038629;28;20674;-55
2022/10/18 03:50:09;;;;;;;9.13;7.67;;;15.10;99.90;;;;;;5045930;28;20241;-53
2022/10/18 03:52:35;;;;;;;9.60;8.70;;;15.30;99.90;;;;;;5050713;28;20201;-53
2022/10/18 03:55:02;;;;;;;9.57;8.57;;;15.30;99.90;;;;;;5046817;28;20215;-53
2022/10/18 03:57:29;;;;;;;10.13;8.57;;;15.30;99.90;;;;;;5046668;28;20201;-53
2022/10/18 03:59:56;;;;;;;12.80;9.10;;;15.30;99.90;;;;;;5048829;28;20659;-53
2022/10/18 04:02:23;;;;;;;9.67;8.67;;;15.30;99.90;;;;;;5047170;28;20310;-53
2022/10/18 04:04:51;;;;;;;11.40;8.60;;;15.30;99.90;;;;;;5046690;28;20201;-52
2022/10/18 04:07:17;;;;;;;9.97;8.97;;;15.30;99.90;;;;;;5049635;28;20240;-54
2022/10/18 04:09:44;;;;;;;9.83;8.83;;;15.30;99.90;;;;;;5049676;28;20229;-52
2022/10/18 04:12:11;;;;;;;10.27;9.07;;;15.30;99.90;;;;;;5050317;28;20210;-52
2022/10/18 04:14:38;;;;;;;9.93;8.07;;;15.30;99.90;;;;;;5049825;28;20212;-53
2022/10/18 04:17:05;;;;;;;9.33;8.33;;;15.30;99.90;;;;;;5052111;28;20676;-53
2022/10/18 04:19:32;;;;;;;9.30;8.20;;;15.30;99.90;;;;;;5049539;28;20201;-51
2022/10/18 04:21:59;;;;;;;9.00;8.10;;;15.20;99.90;;;;;;5047923;28;20670;-54
2022/10/18 04:24:25;;;;;;;8.80;8.00;;;15.20;99.90;;;;;;5047666;28;20311;-52
2022/10/18 04:26:52;;;;;;;9.17;7.77;;;15.20;99.90;;;;;;5047735;28;20201;-53
2022/10/18 04:29:19;;;;;;;10.53;8.00;;;15.20;99.90;;;;;;5046249;28;20654;-52
2022/10/18 04:31:46;;;;;;;8.50;7.60;;;15.10;99.90;;;;;;5046818;28;20215;-52
2022/10/18 04:34:13;;;;;;;8.77;7.77;;;15.00;99.90;;;;;;5042901;28;20225;-52
2022/10/18 04:36:40;;;;;;;9.10;7.63;;;14.90;99.90;;;;;;5049404;28;20660;-53
2022/10/18 04:39:06;;;;;;;8.87;7.43;;;14.80;99.90;;;;;;5045826;28;20326;-55
2022/10/18 04:41:33;;;;;;;7.10;6.40;;;14.90;99.90;;;;;;5044761;28;20201;-52
2022/10/18 04:44:00;;;;;;;8.27;7.43;;;14.90;99.90;;;;;;5052024;28;20210;-53
2022/10/18 04:46:27;;;;;;;7.50;6.80;;;14.90;99.90;;;;;;5043751;28;20664;-55
2022/10/18 04:48:54;;;;;;;7.80;7.03;;;14.80;99.90;;;;;;5049505;28;20316;-53
2022/10/18 04:51:21;;;;;;;7.80;7.00;;;14.70;99.90;;;;;;5045200;28;20269;-54
2022/10/18 04:53:47;;;;;;;8.90;7.33;;;14.80;99.90;;;;;;5043727;28;20734;-52
2022/10/18 04:56:15;;;;;;;9.17;7.97;;;14.90;99.90;;;;;;5047352;28;20669;-52
2022/10/18 04:58:42;;;;;;;8.87;7.97;;;14.80;99.90;;;;;;5048584;28;20240;-54
2022/10/18 05:01:09;;;;;;;8.43;7.53;;;14.80;99.90;;;;;;5044064;28;20296;-53
2022/10/18 05:03:36;;;;;;;9.73;8.83;;;14.80;99.90;;;;;;5048668;28;20203;-52
2022/10/18 05:06:04;;;;;;;10.97;8.17;;;14.80;99.90;;;;;;5044203;28;20252;-54
2022/10/18 05:08:32;;;;;;;10.70;9.00;;;14.90;99.90;;;;;;5046818;28;20678;-53
2022/10/18 05:10:59;;;;;;;11.60;9.23;;;14.90;99.90;;;;;;5042587;28;20276;-53
2022/10/18 05:13:27;;;;;;;10.43;8.50;;;14.90;99.90;;;;;;5049526;28;20213;-52
2022/10/18 05:15:54;;;;;;;10.77;9.13;;;14.80;99.90;;;;;;5047544;28;20200;-54
2022/10/18 05:18:21;;;;;;;9.20;8.10;;;14.80;99.90;;;;;;5048628;28;20561;-52
2022/10/18 05:20:48;;;;;;;8.50;7.60;;;14.70;99.90;;;;;;5047716;28;20666;-53
2022/10/18 05:23:14;;;;;;;8.87;7.87;;;14.70;99.90;;;;;;5049259;28;20662;-55
2022/10/18 05:25:42;;;;;;;11.50;8.83;;;14.80;99.90;;;;;;5048686;28;20205;-53
2022/10/18 05:28:09;;;;;;;10.87;9.03;;;14.80;99.90;;;;;;5039298;28;20285;-53
2022/10/18 05:31:03;;;;;;;11.43;9.17;;;14.70;99.90;;;;;;5048481;28;20204;-53
2022/10/18 05:33:30;;;;;;;11.47;9.90;;;14.70;99.90;;;;;;5051863;28;20217;-53
2022/10/18 05:35:57;;;;;;;11.63;9.13;;;14.70;99.90;;;;;;5048574;28;20295;-53
2022/10/18 05:38:24;;;;;;;13.93;9.73;;;14.80;99.90;;;;;;5046054;28;20633;-52
2022/10/18 05:40:51;;;;;;;13.43;10.37;;;14.70;99.90;;;;;;5047406;28;20258;-52
2022/10/18 05:43:18;;;;;;;11.60;9.47;;;14.80;99.90;;;;;;5040756;28;20199;-52
2022/10/18 05:45:49;;;;;;;10.33;9.03;;;14.70;99.90;;;;;;5048144;28;20204;-53
2022/10/18 05:48:17;;;;;;;10.73;7.83;;;14.70;99.90;;;;;;5045942;28;20208;-53
2022/10/18 05:50:44;;;;;;;7.60;6.73;;;14.60;99.90;;;;;;5046750;28;20236;-52
2022/10/18 05:53:10;;;;;;;8.87;7.23;;;14.60;99.90;;;;;;5046565;28;20203;-53
2022/10/18 05:56:01;;;;;;;11.63;8.27;;;14.60;99.90;;;;;;5046203;28;20204;-52
2022/10/18 05:58:28;;;;;;;11.67;7.53;;;14.50;99.90;;;;;;5042807;28;20637;-52
2022/10/18 06:00:58;;;;;;;9.73;7.77;;;14.40;99.90;;;;;;5038556;28;20276;-56
2022/10/18 06:03:26;;;;;;;10.57;7.53;;;14.30;99.90;;;;;;5048296;28;20514;-51
2022/10/18 06:06:02;;;;;;;12.80;7.93;;;14.30;99.90;;;;;;5046312;28;20249;-52
2022/10/18 06:08:29;;;;;;;13.47;8.23;;;14.30;99.90;;;;;;5049106;28;20619;-52
2022/10/18 06:10:56;;;;;;;9.90;7.13;;;14.40;99.90;;;;;;5043375;28;21172;-53
2022/10/18 06:13:23;;;;;;;10.57;7.10;;;14.50;99.90;;;;;;5047312;28;20550;-53
2022/10/18 06:15:50;;;;;;;9.80;6.80;;;14.50;99.90;;;;;;5039935;28;20568;-55
2022/10/18 06:18:16;;;;;;;7.57;6.80;;;14.40;99.90;;;;;;5040232;28;20239;-53
2022/10/18 06:20:43;;;;;;;7.67;6.80;;;14.40;99.90;;;;;;5043637;28;20206;-52
2022/10/18 06:23:10;;;;;;;12.50;6.80;;;14.40;99.90;;;;;;5044186;28;20197;-51
2022/10/18 06:25:37;;;;;;;11.43;7.40;;;14.30;99.90;;;;;;5045656;28;20314;-52
2022/10/18 06:28:04;;;;;;;12.33;7.50;;;14.20;99.90;;;;;;5047522;28;20218;-54
2022/10/18 06:30:35;;;;;;;9.30;7.57;;;14.30;99.90;;;;;;5066412;28;20607;-53
2022/10/18 06:33:02;;;;;;;9.50;7.50;;;14.40;99.90;;;;;;5051180;28;20229;-51
2022/10/18 06:35:29;;;;;;;8.73;7.37;;;14.30;99.90;;;;;;5050826;28;20243;-52
2022/10/18 06:37:56;;;;;;;10.63;7.37;;;14.30;99.90;;;;;;5048079;28;20195;-51
2022/10/18 06:40:23;;;;;;;13.03;8.07;;;14.30;99.90;;;;;;4690291;28;9999833;-53
2022/10/18 06:42:50;;;;;;;19.53;10.47;;;14.40;99.90;;;;;;5030460;28;20249;-55
2022/10/18 06:45:26;;;;;;;27.97;11.13;;;14.40;99.90;;;;;;5038284;28;20232;-53
2022/10/18 06:47:53;;;;;;;15.27;10.60;;;14.30;99.90;;;;;;5048516;28;20215;-52
2022/10/18 06:50:19;;;;;;;15.83;11.20;;;14.30;99.90;;;;;;5034379;28;20231;-52
2022/10/18 06:52:47;;;;;;;16.07;12.33;;;14.40;99.90;;;;;;5046167;28;20659;-51
2022/10/18 06:55:14;;;;;;;19.43;11.40;;;14.50;99.90;;;;;;5045663;28;20683;-54
2022/10/18 06:57:41;;;;;;;16.70;12.00;;;14.50;99.90;;;;;;5043499;28;20212;-52
2022/10/18 07:00:08;;;;;;;17.53;11.73;;;14.40;99.90;;;;;;5045097;28;20211;-52
2022/10/18 07:02:36;;;;;;;19.70;12.37;;;14.50;99.90;;;;;;5042205;28;20200;-55
2022/10/18 07:05:03;;;;;;;19.73;11.37;;;14.60;99.90;;;;;;5045780;28;20892;-52
2022/10/18 07:07:30;;;;;;;18.93;10.77;;;14.60;99.90;;;;;;5046535;28;20296;-53
2022/10/18 07:09:57;;;;;;;15.83;9.80;;;14.50;99.90;;;;;;5043368;28;20223;-53
2022/10/18 07:12:24;;;;;;;13.37;10.27;;;14.40;99.90;;;;;;5041789;28;20229;-53
2022/10/18 07:14:51;;;;;;;11.80;9.00;;;14.50;99.90;;;;;;5043697;28;20213;-52
2022/10/18 07:17:18;;;;;;;14.57;8.87;;;14.40;99.90;;;;;;5037401;28;20360;-50
2022/10/18 07:19:45;;;;;;;11.03;9.33;;;14.30;99.90;;;;;;5025228;28;20212;-54
2022/10/18 07:22:11;;;;;;;13.70;8.63;;;14.40;99.90;;;;;;5033970;28;20194;-51
2022/10/18 07:24:38;;;;;;;12.90;8.40;;;14.30;99.90;;;;;;5037498;28;20216;-52
2022/10/18 07:27:05;;;;;;;12.93;8.40;;;14.30;99.90;;;;;;5032662;28;20630;-52
2022/10/18 07:29:36;;;;;;;13.13;8.60;;;14.20;99.90;;;;;;5042858;28;20258;-54
2022/10/18 07:32:04;;;;;;;12.73;8.97;;;14.30;99.90;;;;;;5051313;28;20196;-51
2022/10/18 07:34:30;;;;;;;13.87;8.33;;;14.30;99.90;;;;;;5038667;28;20305;-53
2022/10/18 07:36:57;;;;;;;14.53;8.60;;;14.20;99.90;;;;;;5037091;28;20557;-54
2022/10/18 07:39:24;;;;;;;16.03;9.50;;;14.30;99.90;;;;;;5039998;28;20207;-51
2022/10/18 07:41:51;;;;;;;19.60;10.33;;;14.40;99.90;;;;;;5025357;28;20284;-55
2022/10/18 07:44:18;;;;;;;13.23;8.67;;;14.40;99.90;;;;;;5033143;28;20234;-54
2022/10/18 07:46:44;;;;;;;14.43;9.53;;;14.50;99.90;;;;;;5021073;28;20208;-53
2022/10/18 07:49:11;;;;;;;13.40;8.87;;;14.50;99.90;;;;;;5022891;28;20213;-55
2022/10/18 07:51:38;;;;;;;16.70;10.17;;;14.60;99.90;;;;;;5028390;28;20204;-52
2022/10/18 07:54:05;;;;;;;14.43;9.20;;;14.70;99.90;;;;;;5031804;28;20216;-53
2022/10/18 07:56:32;;;;;;;13.07;9.40;;;14.70;99.90;;;;;;5038851;28;20199;-54
2022/10/18 07:58:58;;;;;;;15.87;9.53;;;14.70;99.90;;;;;;5033964;28;20202;-55
2022/10/18 08:01:25;;;;;;;15.37;9.73;;;14.80;99.90;;;;;;5037981;28;20229;-53
2022/10/18 08:03:53;;;;;;;13.77;9.33;;;14.90;99.90;;;;;;5049887;28;20204;-54
2022/10/18 08:06:21;;;;;;;13.87;9.07;;;14.80;99.90;;;;;;5050772;28;20225;-55
2022/10/18 08:08:48;;;;;;;14.90;8.70;;;14.90;99.90;;;;;;5047062;28;20554;-53
2022/10/18 08:11:21;;;;;;;17.20;8.77;;;14.90;99.90;;;;;;5048463;28;20602;-53
2022/10/18 08:13:49;;;;;;;13.47;9.40;;;14.70;99.90;;;;;;5047096;28;20198;-56
2022/10/18 08:16:27;;;;;;;18.40;9.33;;;14.70;99.90;;;;;;5051485;28;20530;-53
2022/10/18 08:18:56;;;;;;;15.53;9.57;;;14.90;99.90;;;;;;5051635;28;20243;-51
2022/10/18 08:21:23;;;;;;;15.47;9.10;;;14.80;99.90;;;;;;5047315;28;20648;-53
2022/10/18 08:23:50;;;;;;;20.37;9.33;;;14.80;99.90;;;;;;5039681;28;20992;-54
2022/10/18 08:26:19;;;;;;;13.60;9.33;;;14.90;99.90;;;;;;5043819;28;20203;-54
2022/10/18 08:28:47;;;;;;;14.53;8.90;;;15.00;99.90;;;;;;5047598;28;20197;-52
2022/10/18 08:31:24;;;;;;;14.03;8.67;;;15.10;99.90;;;;;;5042009;28;20199;-56
2022/10/18 08:33:53;;;;;;;18.43;9.70;;;15.00;99.90;;;;;;5043474;28;21257;-54
2022/10/18 08:36:19;;;;;;;15.43;9.03;;;15.10;99.90;;;;;;5044697;28;20206;-53
2022/10/18 08:38:48;;;;;;;14.10;8.67;;;15.20;99.90;;;;;;5047194;28;20193;-53
2022/10/18 08:41:53;;;;;;;19.73;10.90;;;14.90;99.90;;;;;;5048160;28;20714;-54
2022/10/18 08:44:30;;;;;;;14.27;9.30;;;15.10;99.90;;;;;;4995309;28;20213;-54
2022/10/18 08:47:10;;;;;;;14.40;9.77;;;15.20;99.90;;;;;;5004318;28;20218;-53
2022/10/18 08:49:45;;;;;;;15.47;8.43;;;15.60;99.90;;;;;;5006366;28;20244;-52
2022/10/18 08:52:37;;;;;;;13.43;8.23;;;15.60;99.90;;;;;;5002056;28;20201;-53
2022/10/18 08:55:19;;;;;;;11.20;8.50;;;15.60;99.90;;;;;;4997058;28;20232;-52
2022/10/18 08:57:49;;;;;;;14.10;8.53;;;16.00;99.90;;;;;;4991647;28;20212;-53
2022/10/18 09:00:19;;;;;;;10.43;8.40;;;16.10;99.90;;;;;;5009033;28;20204;-53
2022/10/18 09:03:04;;;;;;;12.60;8.30;;;16.50;99.90;;;;;;5008033;28;20297;-52
2022/10/18 09:05:55;;;;;;;15.83;8.60;;;16.50;99.90;;;;;;5009939;28;20204;-53
2022/10/18 09:08:38;;;;;;;11.70;7.17;;;16.30;99.90;;;;;;5002737;28;20712;-52
2022/10/18 09:11:25;;;;;;;10.60;7.90;;;16.50;99.90;;;;;;5007381;28;20671;-52
2022/10/18 09:14:01;;;;;;;11.80;8.30;;;16.20;99.90;;;;;;5002579;28;20620;-54
2022/10/18 09:16:46;;;;;;;14.10;8.07;;;16.10;99.90;;;;;;5042982;28;20211;-55
2022/10/18 09:19:31;;;;;;;9.80;7.60;;;16.40;99.90;;;;;;5043545;28;20312;-51
2022/10/18 09:22:05;;;;;;;13.30;7.47;;;16.80;99.90;;;;;;5044289;28;20663;-52
2022/10/18 09:24:42;;;;;;;13.87;7.97;;;16.90;99.90;;;;;;5046641;28;20205;-52
2022/10/18 09:27:21;;;;;;;9.20;7.83;;;16.70;99.90;;;;;;5043725;28;20286;-53
2022/10/18 09:30:03;;;;;;;12.07;7.80;;;16.80;99.90;;;;;;5047617;28;20607;-52
2022/10/18 09:33:01;;;;;;;9.73;7.63;;;17.20;99.90;;;;;;5045592;28;20253;-54
2022/10/18 09:35:51;;;;;;;12.20;7.27;;;17.60;99.90;;;;;;5046007;28;20309;-56
2022/10/18 09:38:22;;;;;;;11.13;8.03;;;17.70;99.90;;;;;;5042391;28;20602;-53
2022/10/18 09:41:03;;;;;;;12.23;7.13;;;17.90;99.90;;;;;;5036320;28;20207;-55
2022/10/18 09:43:55;;;;;;;8.67;6.37;;;18.10;99.90;;;;;;5041903;28;20207;-54
2022/10/18 09:46:29;;;;;;;13.90;7.03;;;18.10;99.90;;;;;;5040160;28;20212;-53
2022/10/18 09:49:05;;;;;;;16.30;6.93;;;18.00;99.90;;;;;;5044058;28;20216;-53
2022/10/18 09:51:41;;;;;;;11.83;6.33;;;18.20;99.90;;;;;;5043289;28;20235;-53
2022/10/18 09:54:18;;;;;;;12.97;7.70;;;18.40;99.90;;;;;;5038728;28;20212;-53
2022/10/18 09:56:54;;;;;;;12.83;7.10;;;18.50;99.90;;;;;;5047030;28;20635;-54
2022/10/18 09:59:27;;;;;;;10.03;5.63;;;18.60;99.90;;;;;;5049290;28;20207;-53
2022/10/18 10:01:55;;;;;;;12.13;5.60;;;18.50;99.90;;;;;;5044316;28;20708;-53
2022/10/18 10:04:21;;;;;;;7.03;3.73;;;18.60;99.90;;;;;;5043420;28;20196;-53
2022/10/18 10:06:50;;;;;;;7.97;4.33;;;18.60;99.90;;;;;;5045937;28;20616;-55
2022/10/18 10:09:26;;;;;;;8.40;3.93;;;18.60;99.90;;;;;;5044635;28;20311;-56
2022/10/18 10:11:54;;;;;;;10.03;4.20;;;18.60;99.90;;;;;;5042182;28;20213;-53
2022/10/18 10:14:26;;;;;;;8.37;3.90;;;18.20;99.90;;;;;;5044498;28;20198;-55
2022/10/18 10:17:04;;;;;;;12.60;3.17;;;18.30;99.90;;;;;;5041599;28;20233;-53
2022/10/18 10:19:53;;;;;;;18.67;4.43;;;18.40;99.90;;;;;;5045339;28;20229;-54
2022/10/18 10:22:30;;;;;;;10.07;3.00;;;18.40;99.90;;;;;;5044351;28;20291;-54
2022/10/18 10:24:58;;;;;;;10.27;3.17;;;18.50;99.90;;;;;;5043179;28;20240;-54
2022/10/18 10:27:32;;;;;;;10.23;3.40;;;18.50;99.90;;;;;;5047644;28;20203;-53
2022/10/18 10:30:19;;;;;;;9.60;3.73;;;18.20;99.90;;;;;;5042524;28;20289;-53
2022/10/18 10:32:48;;;;;;;9.87;3.53;;;18.00;99.90;;;;;;5055433;28;20206;-54
2022/10/18 10:35:28;;;;;;;7.70;2.47;;;18.20;99.90;;;;;;5041575;28;20218;-54
2022/10/18 10:38:25;;;;;;;10.20;2.50;;;18.10;99.90;;;;;;5047206;28;20202;-53
2022/10/18 10:40:53;;;;;;;5.73;1.80;;;18.50;99.90;;;;;;5045415;28;20200;-54
2022/10/18 10:43:36;;;;;;;12.77;2.07;;;18.30;99.90;;;;;;5047993;28;20197;-53
2022/10/18 10:46:17;;;;;;;5.13;1.70;;;18.30;99.90;;;;;;5042321;28;20727;-53
2022/10/18 10:48:56;;;;;;;9.07;2.53;;;18.50;99.90;;;;;;5048216;28;20239;-53
2022/10/18 10:51:43;;;;;;;7.77;2.33;;;18.60;99.90;;;;;;5043015;28;20301;-52
2022/10/18 10:54:15;;;;;;;5.97;2.00;;;18.70;99.90;;;;;;5040603;28;20203;-53
2022/10/18 10:57:00;;;;;;;5.70;2.00;;;18.80;99.90;;;;;;5055490;28;20223;-55
2022/10/18 10:59:36;;;;;;;8.20;1.70;;;18.90;99.90;;;;;;5043598;28;20201;-54
2022/10/18 11:02:30;;;;;;;6.10;2.33;;;19.00;99.90;;;;;;5040078;28;20207;-54
2022/10/18 11:05:25;;;;;;;8.97;2.07;;;19.10;99.90;;;;;;5040965;28;20295;-52
2022/10/18 11:07:57;;;;;;;6.73;2.27;;;18.70;99.90;;;;;;5037701;28;20211;-54
2022/10/18 11:10:29;;;;;;;6.17;2.30;;;18.80;99.90;;;;;;5044318;28;20728;-53
2022/10/18 11:13:22;;;;;;;3.60;1.30;;;19.20;99.90;;;;;;5045862;28;20291;-56
2022/10/18 11:15:53;;;;;;;10.37;1.57;;;19.30;99.90;;;;;;5039321;28;20219;-51
2022/10/18 11:18:33;;;;;;;6.07;1.70;;;19.10;99.90;;;;;;5045346;28;20200;-53
2022/10/18 11:21:07;;;;;;;4.27;1.50;;;19.20;99.90;;;;;;5037313;28;20238;-52
2022/10/18 11:23:36;;;;;;;6.97;1.93;;;19.10;99.90;;;;;;5046317;28;20207;-54
2022/10/18 11:26:12;;;;;;;4.33;1.30;;;19.00;99.90;;;;;;5046975;28;20254;-53
2022/10/18 11:28:56;;;;;;;7.83;1.90;;;18.90;99.90;;;;;;5050966;28;20214;-54
2022/10/18 11:31:31;;;;;;;5.63;2.07;;;19.30;99.90;;;;;;5041760;28;20206;-52
2022/10/18 11:34:25;;;;;;;6.53;1.70;;;19.60;99.90;;;;;;5046124;28;20197;-53
2022/10/18 11:37:02;;;;;;;8.00;2.50;;;19.80;99.90;;;;;;5047006;28;20226;-52
2022/10/18 11:39:55;;;;;;;10.07;2.27;;;20.10;99.90;;;;;;5040219;28;20253;-53
2022/10/18 11:42:51;;;;;;;4.87;2.03;;;20.40;99.90;;;;;;5049000;28;20203;-53
2022/10/18 11:45:47;;;;;;;6.13;1.73;;;20.90;99.90;;;;;;5035819;28;20196;-52
2022/10/18 11:48:33;;;;;;;5.67;1.97;;;21.00;99.90;;;;;;5040243;28;20668;-54
2022/10/18 11:51:18;;;;;;;5.20;1.80;;;21.10;99.90;;;;;;5030900;28;20232;-55
2022/10/18 11:54:06;;;;;;;5.83;1.60;;;21.60;99.90;;;;;;5039531;28;20209;-56
2022/10/18 11:56:46;;;;;;;5.23;1.40;;;21.60;99.90;;;;;;5045292;28;20276;-53
2022/10/18 11:59:35;;;;;;;5.40;1.80;;;21.50;99.90;;;;;;5045164;28;20256;-52
2022/10/18 12:02:34;;;;;;;8.53;1.87;;;21.60;99.90;;;;;;5046560;28;20195;-52
2022/10/18 12:05:03;;;;;;;6.30;1.57;;;21.20;99.90;;;;;;5044112;28;20283;-54
2022/10/18 12:08:00;;;;;;;7.80;2.03;;;21.60;99.90;;;;;;5043698;28;20195;-53
2022/10/18 12:10:31;;;;;;;4.17;1.13;;;22.00;99.90;;;;;;5046144;28;20319;-53
2022/10/18 12:13:38;;;;;;;7.20;1.60;;;22.50;99.90;;;;;;5044655;28;20203;-55
2022/10/18 12:16:07;;;;;;;3.93;1.30;;;22.70;99.90;;;;;;5040517;28;20232;-59
2022/10/18 12:18:40;;;;;;;5.47;1.67;;;22.70;99.90;;;;;;5046538;28;20290;-58
2022/10/18 12:21:07;;;;;;;3.93;1.30;;;23.00;99.90;;;;;;5045598;28;20219;-59
2022/10/18 12:23:53;;;;;;;6.40;1.37;;;23.10;99.90;;;;;;5027238;28;20224;-60
2022/10/18 12:26:20;;;;;;;4.93;1.30;;;23.30;99.90;;;;;;5044279;28;20662;-56
2022/10/18 12:29:12;;;;;;;5.37;1.30;;;23.30;99.90;;;;;;5044081;28;20195;-55
2022/10/18 12:32:10;;;;;;;9.30;1.63;;;23.10;99.90;;;;;;5043273;28;20209;-55
2022/10/18 12:34:45;;;;;;;6.67;1.73;;;23.50;99.90;;;;;;5043625;28;20223;-54
2022/10/18 12:37:37;;;;;;;5.37;1.40;;;23.30;99.90;;;;;;5042072;28;22681;-54
2022/10/18 12:40:12;;;;;;;4.17;1.27;;;23.40;99.90;;;;;;5041397;28;20206;-53
2022/10/18 12:42:49;;;;;;;6.13;1.33;;;23.50;99.90;;;;;;5044418;28;20207;-55
2022/10/18 12:45:22;;;;;;;9.50;1.40;;;23.70;99.90;;;;;;5045990;28;20677;-53
2022/10/18 12:47:49;;;;;;;4.23;1.70;;;23.50;99.90;;;;;;5044097;28;20204;-55
2022/10/18 12:50:28;;;;;;;6.47;1.70;;;23.80;99.90;;;;;;5042262;28;20322;-53
2022/10/18 12:53:06;;;;;;;6.03;1.57;;;23.80;99.90;;;;;;5041465;28;20220;-55
2022/10/18 12:55:39;;;;;;;4.63;1.57;;;23.70;99.90;;;;;;5043123;28;20237;-54
2022/10/18 12:58:28;;;;;;;7.17;1.80;;;23.40;99.90;;;;;;5050221;28;20761;-54
2022/10/18 13:01:01;;;;;;;7.80;1.50;;;23.20;99.90;;;;;;5046086;28;20195;-56
2022/10/18 13:03:49;;;;;;;6.53;1.30;;;22.90;99.90;;;;;;5046576;28;20542;-54
2022/10/18 13:06:16;;;;;;;6.60;1.40;;;23.00;99.90;;;;;;5045805;28;20573;-54
2022/10/18 13:08:44;;;;;;;8.27;1.73;;;22.70;99.90;;;;;;5045083;28;20195;-55